sensor_id;sensor_type;location;lat;lon;timestamp;pressure;altitude;pressure_sealevel;temperature;humidity
30724;BME280;17473;52.286;20.930;2023-06-26T00:01:43;100241.81;;;19.55;69.94
30724;BME280;17473;52.286;20.930;2023-06-26T00:04:10;100233.72;;;19.66;69.72
30724;BME280;17473;52.286;20.930;2023-06-26T00:06:42;100249.81;;;19.61;70.05
30724;BME280;17473;52.286;20.930;2023-06-26T00:09:09;100243.59;;;19.50;70.75
30724;BME280;17473;52.286;20.930;2023-06-26T00:11:36;100248.13;;;19.40;71.05
30724;BME280;17473;52.286;20.930;2023-06-26T00:14:03;100248.94;;;19.54;70.75
30724;BME280;17473;52.286;20.930;2023-06-26T00:16:31;100240.97;;;19.44;70.92
30724;BME280;17473;52.286;20.930;2023-06-26T00:18:58;100240.16;;;19.31;71.77
30724;BME280;17473;52.286;20.930;2023-06-26T00:21:26;100240.19;;;19.21;72.19
30724;BME280;17473;52.286;20.930;2023-06-26T00:23:54;100238.34;;;19.33;71.56
30724;BME280;17473;52.286;20.930;2023-06-26T00:26:21;100240.13;;;19.32;71.33
30724;BME280;17473;52.286;20.930;2023-06-26T00:28:48;100241.09;;;19.16;72.23
30724;BME280;17473;52.286;20.930;2023-06-26T00:31:15;100240.22;;;19.11;73.00
30724;BME280;17473;52.286;20.930;2023-06-26T00:33:42;100232.19;;;19.15;72.37
30724;BME280;17473;52.286;20.930;2023-06-26T00:36:10;100237.47;;;19.26;72.30
30724;BME280;17473;52.286;20.930;2023-06-26T00:38:37;100237.47;;;19.28;71.89
30724;BME280;17473;52.286;20.930;2023-06-26T00:41:04;100235.69;;;19.30;72.21
30724;BME280;17473;52.286;20.930;2023-06-26T00:43:32;100231.25;;;19.27;72.24
30724;BME280;17473;52.286;20.930;2023-06-26T00:45:59;100223.25;;;19.10;73.34
30724;BME280;17473;52.286;20.930;2023-06-26T00:48:26;100227.72;;;19.11;73.07
30724;BME280;17473;52.286;20.930;2023-06-26T00:50:54;100219.72;;;19.13;73.32
30724;BME280;17473;52.286;20.930;2023-06-26T00:53:21;100225.94;;;19.21;72.88
30724;BME280;17473;52.286;20.930;2023-06-26T00:55:49;100225.00;;;19.20;72.82
30724;BME280;17473;52.286;20.930;2023-06-26T00:58:16;100225.06;;;19.17;73.33
30724;BME280;17473;52.286;20.930;2023-06-26T01:00:43;100225.00;;;19.27;72.73
30724;BME280;17473;52.286;20.930;2023-06-26T01:03:12;100225.94;;;19.16;73.20
30724;BME280;17473;52.286;20.930;2023-06-26T01:05:39;100224.19;;;19.11;73.60
30724;BME280;17473;52.286;20.930;2023-06-26T01:08:08;100216.16;;;19.03;74.00
30724;BME280;17473;52.286;20.930;2023-06-26T01:10:36;100219.78;;;18.85;74.42
30724;BME280;17473;52.286;20.930;2023-06-26T01:13:03;100219.78;;;18.85;74.84
30724;BME280;17473;52.286;20.930;2023-06-26T01:15:31;100209.97;;;18.81;74.31
30724;BME280;17473;52.286;20.930;2023-06-26T01:17:59;100211.75;;;18.78;74.37
30724;BME280;17473;52.286;20.930;2023-06-26T01:20:34;100208.19;;;18.86;74.29
30724;BME280;17473;52.286;20.930;2023-06-26T01:23:08;100203.72;;;18.86;74.11
30724;BME280;17473;52.286;20.930;2023-06-26T01:26:26;100197.47;;;18.84;74.42
30724;BME280;17473;52.286;20.930;2023-06-26T01:28:47;100200.16;;;18.86;74.45
30724;BME280;17473;52.286;20.930;2023-06-26T01:34:03;100201.03;;;18.83;75.06
30724;BME280;17473;52.286;20.930;2023-06-26T01:36:31;100193.00;;;18.86;74.84
30724;BME280;17473;52.286;20.930;2023-06-26T01:38:58;100197.44;;;18.92;75.07
30724;BME280;17473;52.286;20.930;2023-06-26T01:41:25;100201.06;;;18.85;75.13
30724;BME280;17473;52.286;20.930;2023-06-26T01:44:17;100190.34;;;18.83;75.08
30724;BME280;17473;52.286;20.930;2023-06-26T01:47:04;100190.34;;;18.89;74.46
30724;BME280;17473;52.286;20.930;2023-06-26T01:49:49;100193.91;;;18.84;75.04
30724;BME280;17473;52.286;20.930;2023-06-26T01:52:21;100197.50;;;18.78;75.56
30724;BME280;17473;52.286;20.930;2023-06-26T01:58:06;100192.19;;;18.67;75.81
30724;BME280;17473;52.286;20.930;2023-06-26T02:00:34;100194.84;;;18.72;75.72
30724;BME280;17473;52.286;20.930;2023-06-26T02:03:02;100184.19;;;18.59;75.51
30724;BME280;17473;52.286;20.930;2023-06-26T02:05:30;100178.81;;;18.56;75.84
30724;BME280;17473;52.286;20.930;2023-06-26T02:07:58;100181.50;;;18.59;75.58
30724;BME280;17473;52.286;20.930;2023-06-26T02:10:25;100184.19;;;18.59;75.63
30724;BME280;17473;52.286;20.930;2023-06-26T02:12:52;100184.16;;;18.64;75.57
30724;BME280;17473;52.286;20.930;2023-06-26T02:15:19;100182.38;;;18.58;76.03
30724;BME280;17473;52.286;20.930;2023-06-26T02:17:46;100179.75;;;18.55;75.94
30724;BME280;17473;52.286;20.930;2023-06-26T02:20:15;100186.00;;;18.50;75.71
30724;BME280;17473;52.286;20.930;2023-06-26T02:22:42;100184.19;;;18.52;75.54
30724;BME280;17473;52.286;20.930;2023-06-26T02:25:10;100172.59;;;18.48;75.80
30724;BME280;17473;52.286;20.930;2023-06-26T02:27:39;100184.22;;;18.30;76.68
30724;BME280;17473;52.286;20.930;2023-06-26T02:30:08;100176.22;;;18.30;76.26
30724;BME280;17473;52.286;20.930;2023-06-26T02:32:35;100175.28;;;18.46;75.33
30724;BME280;17473;52.286;20.930;2023-06-26T02:35:02;100171.75;;;18.38;75.20
30724;BME280;17473;52.286;20.930;2023-06-26T02:37:29;100184.22;;;18.44;75.25
30724;BME280;17473;52.286;20.930;2023-06-26T02:39:56;100178.88;;;18.36;75.49
30724;BME280;17473;52.286;20.930;2023-06-26T02:42:23;100177.94;;;18.48;75.33
30724;BME280;17473;52.286;20.930;2023-06-26T02:44:50;100182.44;;;18.51;74.83
30724;BME280;17473;52.286;20.930;2023-06-26T02:47:18;100186.84;;;18.55;74.57
30724;BME280;17473;52.286;20.930;2023-06-26T02:49:45;100182.44;;;18.41;74.89
30724;BME280;17473;52.286;20.930;2023-06-26T02:52:13;100191.34;;;18.33;75.42
30724;BME280;17473;52.286;20.930;2023-06-26T02:54:40;100192.25;;;18.22;76.16
30724;BME280;17473;52.286;20.930;2023-06-26T02:57:07;100189.59;;;18.25;75.65
30724;BME280;17473;52.286;20.930;2023-06-26T02:59:34;100184.22;;;18.44;74.89
30724;BME280;17473;52.286;20.930;2023-06-26T03:02:01;100179.72;;;18.58;74.04
30724;BME280;17473;52.286;20.930;2023-06-26T03:04:28;100189.53;;;18.50;74.26
30724;BME280;17473;52.286;20.930;2023-06-26T03:06:55;100183.28;;;18.64;74.14
30724;BME280;17473;52.286;20.930;2023-06-26T03:09:23;100186.84;;;18.64;74.28
30724;BME280;17473;52.286;20.930;2023-06-26T03:11:50;100179.72;;;18.65;74.41
30724;BME280;17473;52.286;20.930;2023-06-26T03:14:17;100186.81;;;18.69;74.60
30724;BME280;17473;52.286;20.930;2023-06-26T03:16:44;100183.28;;;18.64;74.17
30724;BME280;17473;52.286;20.930;2023-06-26T03:19:11;100176.09;;;18.78;73.97
30724;BME280;17473;52.286;20.930;2023-06-26T03:21:38;100178.75;;;18.86;73.72
30724;BME280;17473;52.286;20.930;2023-06-26T03:24:06;100183.16;;;19.04;73.06
30724;BME280;17473;52.286;20.930;2023-06-26T03:26:33;100177.84;;;18.96;73.37
30724;BME280;17473;52.286;20.930;2023-06-26T03:29:00;100176.03;;;19.06;72.47
30724;BME280;17473;52.286;20.930;2023-06-26T03:31:27;100186.69;;;19.18;71.64
30724;BME280;17473;52.286;20.930;2023-06-26T03:33:54;100183.06;;;19.27;70.95
30724;BME280;17473;52.286;20.930;2023-06-26T03:36:21;100189.16;;;19.51;70.34
30724;BME280;17473;52.286;20.930;2023-06-26T03:38:48;100184.47;;;19.92;68.16
30724;BME280;17473;52.286;20.930;2023-06-26T03:41:15;100180.66;;;20.17;67.21
30724;BME280;17473;52.286;20.930;2023-06-26T03:43:43;100182.22;;;20.45;66.39
30724;BME280;17473;52.286;20.930;2023-06-26T03:46:10;100186.84;;;21.15;63.54
30724;BME280;17473;52.286;20.930;2023-06-26T03:48:37;100187.41;;;22.51;58.20
30724;BME280;17473;52.286;20.930;2023-06-26T03:51:05;100182.44;;;24.38;52.14
30724;BME280;17473;52.286;20.930;2023-06-26T03:53:34;100193.47;;;25.85;46.79
30724;BME280;17473;52.286;20.930;2023-06-26T03:56:01;100185.50;;;27.35;43.23
30724;BME280;17473;52.286;20.930;2023-06-26T03:58:28;100186.44;;;28.24;40.01
30724;BME280;17473;52.286;20.930;2023-06-26T04:00:55;100180.97;;;28.88;38.73
30724;BME280;17473;52.286;20.930;2023-06-26T04:03:24;100188.63;;;29.58;37.57
30724;BME280;17473;52.286;20.930;2023-06-26T04:05:51;100191.19;;;30.17;36.27
30724;BME280;17473;52.286;20.930;2023-06-26T04:08:18;100187.97;;;30.96;34.97
30724;BME280;17473;52.286;20.930;2023-06-26T04:10:46;100188.91;;;31.13;34.47
30724;BME280;17473;52.286;20.930;2023-06-26T04:13:14;100194.94;;;31.51;33.91
30724;BME280;17473;52.286;20.930;2023-06-26T04:15:41;100190.69;;;32.10;32.98
30724;BME280;17473;52.286;20.930;2023-06-26T04:18:08;100188.50;;;32.47;32.04
30724;BME280;17473;52.286;20.930;2023-06-26T04:20:41;100200.72;;;33.01;31.46
30724;BME280;17473;52.286;20.930;2023-06-26T04:23:08;100194.38;;;33.15;31.09
30724;BME280;17473;52.286;20.930;2023-06-26T04:25:35;100199.56;;;33.48;30.76
30724;BME280;17473;52.286;20.930;2023-06-26T04:28:04;100193.16;;;34.04;29.69
30724;BME280;17473;52.286;20.930;2023-06-26T04:30:31;100197.47;;;34.48;29.28
30724;BME280;17473;52.286;20.930;2023-06-26T04:32:58;100194.56;;;35.16;28.42
30724;BME280;17473;52.286;20.930;2023-06-26T04:35:28;100185.59;;;35.64;27.82
30724;BME280;17473;52.286;20.930;2023-06-26T04:37:55;100189.66;;;36.20;27.06
30724;BME280;17473;52.286;20.930;2023-06-26T04:40:22;100187.84;;;36.79;25.64
30724;BME280;17473;52.286;20.930;2023-06-26T04:42:49;100185.16;;;37.36;25.06
30724;BME280;17473;52.286;20.930;2023-06-26T04:45:16;100186.75;;;37.61;25.16
30724;BME280;17473;52.286;20.930;2023-06-26T04:47:44;100176.97;;;39.08;22.81
30724;BME280;17473;52.286;20.930;2023-06-26T04:50:11;100187.81;;;38.79;23.75
30724;BME280;17473;52.286;20.930;2023-06-26T04:52:38;100180.31;;;39.12;23.39
30724;BME280;17473;52.286;20.930;2023-06-26T04:55:05;100176.53;;;39.44;22.97
30724;BME280;17473;52.286;20.930;2023-06-26T04:57:32;100179.75;;;39.59;22.78
30724;BME280;17473;52.286;20.930;2023-06-26T04:59:59;100179.38;;;40.81;21.68
30724;BME280;17473;52.286;20.930;2023-06-26T05:02:26;100180.50;;;41.08;21.16
30724;BME280;17473;52.286;20.930;2023-06-26T05:04:54;100180.41;;;40.71;21.71
30724;BME280;17473;52.286;20.930;2023-06-26T05:07:21;100189.03;;;41.53;21.05
30724;BME280;17473;52.286;20.930;2023-06-26T05:09:48;100185.25;;;41.44;20.45
30724;BME280;17473;52.286;20.930;2023-06-26T05:12:15;100195.31;;;42.37;19.98
30724;BME280;17473;52.286;20.930;2023-06-26T05:14:42;100182.09;;;43.01;19.29
30724;BME280;17473;52.286;20.930;2023-06-26T05:17:09;100180.66;;;42.71;19.42
30724;BME280;17473;52.286;20.930;2023-06-26T05:19:36;100180.38;;;43.94;18.36
30724;BME280;17473;52.286;20.930;2023-06-26T05:22:04;100173.88;;;43.18;18.56
30724;BME280;17473;52.286;20.930;2023-06-26T05:24:40;100174.16;;;43.50;18.48
30724;BME280;17473;52.286;20.930;2023-06-26T05:27:08;100175.31;;;43.04;18.55
30724;BME280;17473;52.286;20.930;2023-06-26T05:29:35;100174.25;;;42.70;19.24
30724;BME280;17473;52.286;20.930;2023-06-26T05:32:05;100167.00;;;43.39;18.42
30724;BME280;17473;52.286;20.930;2023-06-26T05:34:33;100169.78;;;43.39;18.53
30724;BME280;17473;52.286;20.930;2023-06-26T05:37:02;100169.38;;;43.68;18.19
30724;BME280;17473;52.286;20.930;2023-06-26T05:39:29;100164.19;;;43.73;18.39
30724;BME280;17473;52.286;20.930;2023-06-26T05:41:57;100160.78;;;44.04;17.93
30724;BME280;17473;52.286;20.930;2023-06-26T05:44:24;100164.63;;;44.61;17.23
30724;BME280;17473;52.286;20.930;2023-06-26T05:46:52;100170.88;;;44.14;17.74
30724;BME280;17473;52.286;20.930;2023-06-26T05:49:19;100168.09;;;44.71;17.64
30724;BME280;17473;52.286;20.930;2023-06-26T05:51:46;100163.31;;;45.13;16.97
30724;BME280;17473;52.286;20.930;2023-06-26T05:54:14;100161.47;;;44.89;17.38
30724;BME280;17473;52.286;20.930;2023-06-26T05:56:41;100156.25;;;45.34;17.45
30724;BME280;17473;52.286;20.930;2023-06-26T05:59:11;100158.63;;;46.85;16.23
30724;BME280;17473;52.286;20.930;2023-06-26T06:01:39;100162.44;;;46.31;16.14
30724;BME280;17473;52.286;20.930;2023-06-26T06:04:07;100154.63;;;45.79;16.39
30724;BME280;17473;52.286;20.930;2023-06-26T06:06:34;100158.56;;;46.78;16.21
30724;BME280;17473;52.286;20.930;2023-06-26T06:09:01;100158.34;;;46.95;15.65
30724;BME280;17473;52.286;20.930;2023-06-26T06:11:28;100153.97;;;46.62;15.80
30724;BME280;17473;52.286;20.930;2023-06-26T06:13:55;100156.09;;;45.99;16.71
30724;BME280;17473;52.286;20.930;2023-06-26T06:16:22;100152.22;;;46.00;16.38
30724;BME280;17473;52.286;20.930;2023-06-26T06:18:49;100146.69;;;47.21;15.61
30724;BME280;17473;52.286;20.930;2023-06-26T06:21:16;100142.78;;;47.15;15.04
30724;BME280;17473;52.286;20.930;2023-06-26T06:23:44;100151.31;;;47.29;15.35
30724;BME280;17473;52.286;20.930;2023-06-26T06:26:11;100152.34;;;47.79;15.25
30724;BME280;17473;52.286;20.930;2023-06-26T06:28:39;100145.31;;;47.84;15.29
30724;BME280;17473;52.286;20.930;2023-06-26T06:31:06;100145.94;;;48.51;14.62
30724;BME280;17473;52.286;20.930;2023-06-26T06:33:33;100144.94;;;48.30;14.60
30724;BME280;17473;52.286;20.930;2023-06-26T06:36:01;100141.94;;;48.32;14.59
30724;BME280;17473;52.286;20.930;2023-06-26T06:38:28;100142.28;;;48.00;14.84
30724;BME280;17473;52.286;20.930;2023-06-26T06:40:55;100136.91;;;47.99;14.85
30724;BME280;17473;52.286;20.930;2023-06-26T06:43:22;100141.34;;;48.36;14.31
30724;BME280;17473;52.286;20.930;2023-06-26T06:45:49;100136.75;;;48.07;14.29
30724;BME280;17473;52.286;20.930;2023-06-26T06:48:16;100137.16;;;48.04;14.47
30724;BME280;17473;52.286;20.930;2023-06-26T06:50:43;100137.59;;;47.86;14.70
30724;BME280;17473;52.286;20.930;2023-06-26T06:53:11;100130.41;;;47.98;14.24
30724;BME280;17473;52.286;20.930;2023-06-26T06:55:38;100137.00;;;48.12;14.34
30724;BME280;17473;52.286;20.930;2023-06-26T06:58:05;100134.63;;;48.09;14.16
30724;BME280;17473;52.286;20.930;2023-06-26T07:00:32;100126.97;;;47.96;14.49
30724;BME280;17473;52.286;20.930;2023-06-26T07:02:59;100126.31;;;47.94;13.99
30724;BME280;17473;52.286;20.930;2023-06-26T07:05:27;100128.06;;;47.43;14.69
30724;BME280;17473;52.286;20.930;2023-06-26T07:07:54;100122.03;;;46.65;15.12
30724;BME280;17473;52.286;20.930;2023-06-26T07:10:21;100126.47;;;47.71;14.56
30724;BME280;17473;52.286;20.930;2023-06-26T07:12:48;100120.81;;;46.82;15.18
30724;BME280;17473;52.286;20.930;2023-06-26T07:15:16;100121.09;;;47.02;15.16
30724;BME280;17473;52.286;20.930;2023-06-26T07:17:43;100127.84;;;46.78;15.14
30724;BME280;17473;52.286;20.930;2023-06-26T07:20:11;100122.63;;;46.75;14.80
30724;BME280;17473;52.286;20.930;2023-06-26T07:22:42;100111.31;;;48.02;14.13
30724;BME280;17473;52.286;20.930;2023-06-26T07:25:12;100120.72;;;47.21;14.66
30724;BME280;17473;52.286;20.930;2023-06-26T07:27:40;100117.59;;;46.55;15.35
30724;BME280;17473;52.286;20.930;2023-06-26T07:30:08;100119.94;;;46.97;15.00
30724;BME280;17473;52.286;20.930;2023-06-26T07:32:39;100120.50;;;45.77;15.48
30724;BME280;17473;52.286;20.930;2023-06-26T07:35:09;100114.50;;;43.62;17.05
30724;BME280;17473;52.286;20.930;2023-06-26T07:37:36;100113.09;;;43.07;17.70
30724;BME280;17473;52.286;20.930;2023-06-26T07:40:04;100117.72;;;43.33;17.12
30724;BME280;17473;52.286;20.930;2023-06-26T07:42:32;100120.09;;;42.32;16.95
30724;BME280;17473;52.286;20.930;2023-06-26T07:44:59;100114.78;;;43.51;15.98
30724;BME280;17473;52.286;20.930;2023-06-26T07:47:26;100108.47;;;43.91;15.80
30724;BME280;17473;52.286;20.930;2023-06-26T07:49:53;100111.44;;;44.15;16.15
30724;BME280;17473;52.286;20.930;2023-06-26T07:52:20;100106.81;;;43.47;17.03
30724;BME280;17473;52.286;20.930;2023-06-26T07:54:47;100114.06;;;42.00;18.03
30724;BME280;17473;52.286;20.930;2023-06-26T07:57:15;100109.47;;;42.53;17.72
30724;BME280;17473;52.286;20.930;2023-06-26T07:59:42;100105.75;;;42.71;17.62
30724;BME280;17473;52.286;20.930;2023-06-26T08:02:09;100105.00;;;42.16;18.32
30724;BME280;17473;52.286;20.930;2023-06-26T08:04:36;100100.44;;;42.51;17.89
30724;BME280;17473;52.286;20.930;2023-06-26T08:07:04;100104.72;;;40.72;19.70
30724;BME280;17473;52.286;20.930;2023-06-26T08:09:32;100105.19;;;38.77;20.76
30724;BME280;17473;52.286;20.930;2023-06-26T08:11:59;100106.63;;;37.87;21.85
30724;BME280;17473;52.286;20.930;2023-06-26T08:14:27;100108.25;;;36.77;22.25
30724;BME280;17473;52.286;20.930;2023-06-26T08:16:54;100111.81;;;36.44;23.04
30724;BME280;17473;52.286;20.930;2023-06-26T08:19:21;100101.63;;;36.22;23.88
30724;BME280;17473;52.286;20.930;2023-06-26T08:21:48;100112.66;;;35.49;24.72
30724;BME280;17473;52.286;20.930;2023-06-26T08:24:16;100104.91;;;35.91;24.24
30724;BME280;17473;52.286;20.930;2023-06-26T08:26:47;100100.59;;;35.38;24.78
30724;BME280;17473;52.286;20.930;2023-06-26T08:29:15;100105.81;;;35.17;24.82
30724;BME280;17473;52.286;20.930;2023-06-26T08:31:43;100107.41;;;35.33;24.64
30724;BME280;17473;52.286;20.930;2023-06-26T08:34:10;100105.88;;;36.84;22.68
30724;BME280;17473;52.286;20.930;2023-06-26T08:36:37;100109.59;;;37.51;21.73
30724;BME280;17473;52.286;20.930;2023-06-26T08:39:05;100100.53;;;38.26;20.09
30724;BME280;17473;52.286;20.930;2023-06-26T08:41:32;100103.00;;;38.08;19.60
30724;BME280;17473;52.286;20.930;2023-06-26T08:43:59;100095.88;;;37.72;20.49
30724;BME280;17473;52.286;20.930;2023-06-26T08:46:28;100099.16;;;37.66;20.64
30724;BME280;17473;52.286;20.930;2023-06-26T08:49:01;100087.22;;;37.88;21.21
30724;BME280;17473;52.286;20.930;2023-06-26T08:51:34;100087.34;;;37.32;21.37
30724;BME280;17473;52.286;20.930;2023-06-26T08:54:07;100098.16;;;37.01;21.86
30724;BME280;17473;52.286;20.930;2023-06-26T08:56:42;100089.06;;;35.95;22.41
30724;BME280;17473;52.286;20.930;2023-06-26T08:59:09;100093.75;;;36.17;22.69
30724;BME280;17473;52.286;20.930;2023-06-26T09:01:41;100089.78;;;36.32;22.68
30724;BME280;17473;52.286;20.930;2023-06-26T09:04:09;100089.50;;;36.71;22.39
30724;BME280;17473;52.286;20.930;2023-06-26T09:06:36;100080.22;;;36.72;22.05
30724;BME280;17473;52.286;20.930;2023-06-26T09:09:03;100084.84;;;36.60;21.75
30724;BME280;17473;52.286;20.930;2023-06-26T09:11:30;100081.28;;;35.88;21.66
30724;BME280;17473;52.286;20.930;2023-06-26T09:13:59;100087.22;;;35.34;22.78
30724;BME280;17473;52.286;20.930;2023-06-26T09:16:26;100081.06;;;34.93;23.43
30724;BME280;17473;52.286;20.930;2023-06-26T09:18:55;100077.34;;;34.81;23.51
30724;BME280;17473;52.286;20.930;2023-06-26T09:21:22;100072.00;;;34.41;24.51
30724;BME280;17473;52.286;20.930;2023-06-26T09:23:52;100074.63;;;34.42;24.40
30724;BME280;17473;52.286;20.930;2023-06-26T09:26:21;100073.78;;;33.89;24.83
30724;BME280;17473;52.286;20.930;2023-06-26T09:28:49;100069.22;;;34.67;24.23
30724;BME280;17473;52.286;20.930;2023-06-26T09:31:17;100065.63;;;35.29;23.89
30724;BME280;17473;52.286;20.930;2023-06-26T09:34:05;100070.97;;;35.31;23.41
30724;BME280;17473;52.286;20.930;2023-06-26T09:36:33;100069.41;;;35.88;22.72
30724;BME280;17473;52.286;20.930;2023-06-26T09:39:07;100070.59;;;35.97;22.59
30724;BME280;17473;52.286;20.930;2023-06-26T09:41:43;100062.66;;;35.56;23.37
30724;BME280;17473;52.286;20.930;2023-06-26T09:44:13;100065.50;;;34.93;23.63
30724;BME280;17473;52.286;20.930;2023-06-26T09:46:44;100062.09;;;34.90;23.86
30724;BME280;17473;52.286;20.930;2023-06-26T09:49:12;100066.22;;;35.08;23.59
30724;BME280;17473;52.286;20.930;2023-06-26T09:51:41;100057.44;;;35.16;24.04
30724;BME280;17473;52.286;20.930;2023-06-26T09:54:10;100061.00;;;35.30;23.41
30724;BME280;17473;52.286;20.930;2023-06-26T09:56:37;100069.78;;;35.35;23.01
30724;BME280;17473;52.286;20.930;2023-06-26T09:59:06;100065.25;;;35.71;23.40
30724;BME280;17473;52.286;20.930;2023-06-26T10:01:39;100070.19;;;35.66;23.17
30724;BME280;17473;52.286;20.930;2023-06-26T10:04:07;100059.13;;;35.79;21.43
30724;BME280;17473;52.286;20.930;2023-06-26T10:06:38;100056.03;;;35.10;21.52
30724;BME280;17473;52.286;20.930;2023-06-26T10:09:08;100056.56;;;35.40;21.56
30724;BME280;17473;52.286;20.930;2023-06-26T10:12:02;100044.41;;;36.04;20.57
30724;BME280;17473;52.286;20.930;2023-06-26T10:14:37;100048.88;;;35.94;19.87
30724;BME280;17473;52.286;20.930;2023-06-26T10:17:10;100040.22;;;35.38;20.51
30724;BME280;17473;52.286;20.930;2023-06-26T10:19:41;100045.22;;;35.20;21.56
30724;BME280;17473;52.286;20.930;2023-06-26T10:22:12;100044.09;;;35.36;21.96
30724;BME280;17473;52.286;20.930;2023-06-26T10:24:42;100038.16;;;35.42;21.90
30724;BME280;17473;52.286;20.930;2023-06-26T10:27:21;100031.28;;;35.23;21.66
30724;BME280;17473;52.286;20.930;2023-06-26T10:30:00;100028.22;;;34.91;22.00
30724;BME280;17473;52.286;20.930;2023-06-26T10:32:29;100020.31;;;34.86;22.29
30724;BME280;17473;52.286;20.930;2023-06-26T10:34:57;100033.69;;;34.91;22.41
30724;BME280;17473;52.286;20.930;2023-06-26T10:37:51;100022.19;;;34.99;22.49
30724;BME280;17473;52.286;20.930;2023-06-26T10:40:28;100023.97;;;34.74;22.13
30724;BME280;17473;52.286;20.930;2023-06-26T10:43:08;100020.53;;;34.83;22.78
30724;BME280;17473;52.286;20.930;2023-06-26T10:45:37;100026.31;;;34.41;23.49
30724;BME280;17473;52.286;20.930;2023-06-26T10:48:09;100026.81;;;34.08;24.16
30724;BME280;17473;52.286;20.930;2023-06-26T10:50:36;100029.22;;;33.72;24.48
30724;BME280;17473;52.286;20.930;2023-06-26T10:55:59;100024.31;;;33.64;24.32
30724;BME280;17473;52.286;20.930;2023-06-26T11:01:22;100014.00;;;33.55;24.32
30724;BME280;17473;52.286;20.930;2023-06-26T11:06:31;100007.94;;;33.50;23.60
30724;BME280;17473;52.286;20.930;2023-06-26T11:09:15;100008.25;;;33.18;24.25
30724;BME280;17473;52.286;20.930;2023-06-26T11:14:23;100009.34;;;33.15;24.09
30724;BME280;17473;52.286;20.930;2023-06-26T11:16:51;100007.78;;;33.11;24.32
30724;BME280;17473;52.286;20.930;2023-06-26T11:19:19;100005.56;;;33.31;24.00
30724;BME280;17473;52.286;20.930;2023-06-26T11:21:47;99988.75;;;33.37;24.30
30724;BME280;17473;52.286;20.930;2023-06-26T11:24:14;99988.09;;;33.61;23.92
30724;BME280;17473;52.286;20.930;2023-06-26T11:26:44;99999.63;;;33.24;23.82
30724;BME280;17473;52.286;20.930;2023-06-26T11:29:12;99985.28;;;33.20;23.47
30724;BME280;17473;52.286;20.930;2023-06-26T11:31:41;99976.66;;;32.99;23.25
30724;BME280;17473;52.286;20.930;2023-06-26T11:34:10;99983.69;;;33.03;23.60
30724;BME280;17473;52.286;20.930;2023-06-26T11:36:41;99988.38;;;33.29;23.51
30724;BME280;17473;52.286;20.930;2023-06-26T11:39:10;99981.19;;;32.86;24.10
30724;BME280;17473;52.286;20.930;2023-06-26T11:41:40;99991.81;;;32.90;24.23
30724;BME280;17473;52.286;20.930;2023-06-26T11:44:10;99981.00;;;32.89;24.47
30724;BME280;17473;52.286;20.930;2023-06-26T11:46:38;99987.63;;;32.70;24.47
30724;BME280;17473;52.286;20.930;2023-06-26T11:49:06;99992.94;;;32.30;24.19
30724;BME280;17473;52.286;20.930;2023-06-26T11:51:35;99990.78;;;32.35;24.07
30724;BME280;17473;52.286;20.930;2023-06-26T11:54:07;99994.28;;;32.52;24.42
30724;BME280;17473;52.286;20.930;2023-06-26T11:56:34;99988.63;;;32.55;24.66
30724;BME280;17473;52.286;20.930;2023-06-26T11:59:05;99983.09;;;32.27;25.04
30724;BME280;17473;52.286;20.930;2023-06-26T12:01:42;99980.16;;;32.30;24.95
30724;BME280;17473;52.286;20.930;2023-06-26T12:04:16;99978.88;;;32.36;24.98
30724;BME280;17473;52.286;20.930;2023-06-26T12:06:53;99974.28;;;32.37;25.58
30724;BME280;17473;52.286;20.930;2023-06-26T12:09:24;99976.91;;;31.95;26.25
30724;BME280;17473;52.286;20.930;2023-06-26T12:11:54;99971.53;;;31.63;26.49
30724;BME280;17473;52.286;20.930;2023-06-26T12:14:23;99970.59;;;31.78;26.37
30724;BME280;17473;52.286;20.930;2023-06-26T12:16:53;99958.78;;;31.33;27.36
30724;BME280;17473;52.286;20.930;2023-06-26T12:19:25;99960.31;;;31.53;28.60
30724;BME280;17473;52.286;20.930;2023-06-26T12:21:54;99958.56;;;31.66;28.06
30724;BME280;17473;52.286;20.930;2023-06-26T12:24:23;99959.41;;;31.68;27.77
30724;BME280;17473;52.286;20.930;2023-06-26T12:26:55;99958.84;;;31.78;27.12
30724;BME280;17473;52.286;20.930;2023-06-26T12:29:35;99961.84;;;31.57;27.24
30724;BME280;17473;52.286;20.930;2023-06-26T12:32:02;99967.03;;;31.62;27.72
30724;BME280;17473;52.286;20.930;2023-06-26T12:34:35;99952.97;;;31.84;27.15
30724;BME280;17473;52.286;20.930;2023-06-26T12:37:06;99950.75;;;31.76;27.54
30724;BME280;17473;52.286;20.930;2023-06-26T12:39:57;99946.78;;;31.66;27.72
30724;BME280;17473;52.286;20.930;2023-06-26T12:42:27;99947.25;;;31.58;28.53
30724;BME280;17473;52.286;20.930;2023-06-26T12:44:55;99950.25;;;31.69;29.31
30724;BME280;17473;52.286;20.930;2023-06-26T12:47:26;99938.00;;;31.91;26.40
30724;BME280;17473;52.286;20.930;2023-06-26T12:49:55;99943.88;;;31.99;26.83
30724;BME280;17473;52.286;20.930;2023-06-26T12:52:22;99935.56;;;32.01;28.26
30724;BME280;17473;52.286;20.930;2023-06-26T12:54:54;99941.22;;;31.98;27.26
30724;BME280;17473;52.286;20.930;2023-06-26T12:57:23;99930.59;;;32.08;27.42
30724;BME280;17473;52.286;20.930;2023-06-26T12:59:50;99930.78;;;32.05;26.11
30724;BME280;17473;52.286;20.930;2023-06-26T13:02:17;99933.44;;;32.21;29.00
30724;BME280;17473;52.286;20.930;2023-06-26T13:04:46;99923.09;;;32.26;26.25
30724;BME280;17473;52.286;20.930;2023-06-26T13:07:13;99916.56;;;32.28;27.87